Time;durP1;ratioP1;P1;durP2;ratioP2;P2;SDS_P1;SDS_P2;PMS_P1;PMS_P2;Temp;Humidity;BMP_temperature;BMP_pressure;BME280_temperature;BME280_humidity;BME280_pressure;Samples;Min_cycle;Max_cycle;Signal;HPM_P1;HPM_P2
2024/01/09 00:00:17;;;;;;;9.80;5.38;;;;;;;-4.11;69.05;102472.53;4995298;28;20033;-64
2024/01/09 00:02:42;;;;;;;15.35;5.18;;;;;;;-4.10;68.57;102466.69;4992302;28;20073;-63
2024/01/09 00:05:08;;;;;;;11.65;6.05;;;;;;;-4.10;68.02;102464.16;4994037;28;20803;-62
2024/01/09 00:07:33;;;;;;;11.57;4.95;;;;;;;-4.07;67.86;102464.41;4984764;28;20516;-63
2024/01/09 00:09:59;;;;;;;9.90;5.53;;;;;;;-4.08;67.75;102455.09;4989499;28;20046;-63
2024/01/09 00:12:24;;;;;;;11.45;4.72;;;;;;;-4.12;67.95;102462.28;4995079;28;20081;-63
2024/01/09 00:14:50;;;;;;;10.63;5.65;;;;;;;-4.09;68.27;102458.38;4993781;28;20034;-63
2024/01/09 00:17:15;;;;;;;10.95;5.32;;;;;;;-4.15;68.39;102457.00;4994583;28;20042;-60
2024/01/09 00:19:40;;;;;;;9.93;5.38;;;;;;;-4.19;69.91;102482.78;4990914;28;20104;-60
2024/01/09 00:22:06;;;;;;;13.88;6.68;;;;;;;-4.22;70.50;102505.28;4988254;28;20033;-60
2024/01/09 00:24:31;;;;;;;10.20;5.50;;;;;;;-4.23;71.23;102517.00;4999032;28;20033;-60
2024/01/09 00:26:56;;;;;;;10.80;5.85;;;;;;;-4.34;72.19;102522.84;4996425;28;20584;-60
2024/01/09 00:29:22;;;;;;;12.95;5.68;;;;;;;-4.39;72.67;102532.59;4994621;28;20262;-60
2024/01/09 00:31:47;;;;;;;11.07;6.25;;;;;;;-4.45;72.35;102522.00;4996893;28;20034;-60
2024/01/09 00:34:13;;;;;;;11.02;6.05;;;;;;;-4.46;72.20;102517.69;4990560;28;20030;-61
2024/01/09 00:36:43;;;;;;;10.50;5.95;;;;;;;-4.48;72.36;102520.88;4996215;28;20107;-61
2024/01/09 00:39:09;;;;;;;8.35;4.85;;;;;;;-4.48;71.71;102510.78;4991583;28;20030;-61
2024/01/09 00:41:34;;;;;;;14.23;6.50;;;;;;;-4.50;71.69;102508.16;4995681;28;20981;-64
2024/01/09 00:43:59;;;;;;;9.70;5.07;;;;;;;-4.52;71.79;102511.31;4993715;28;20045;-61
2024/01/09 00:46:28;;;;;;;10.35;5.07;;;;;;;-4.55;72.19;102516.16;4993392;28;20666;-61
2024/01/09 00:48:53;;;;;;;11.10;5.10;;;;;;;-4.60;71.71;102510.72;4992911;28;20042;-61
2024/01/09 00:51:19;;;;;;;11.27;5.88;;;;;;;-4.60;72.75;102520.81;4992071;28;20049;-61
2024/01/09 00:53:44;;;;;;;10.57;6.10;;;;;;;-4.60;72.82;102520.81;4997342;28;20030;-61
2024/01/09 00:56:09;;;;;;;12.30;5.75;;;;;;;-4.61;73.53;102545.94;5003888;28;20030;-61
2024/01/09 00:58:35;;;;;;;10.00;5.35;;;;;;;-4.59;74.03;102546.94;4995447;28;20084;-60
2024/01/09 01:01:00;;;;;;;9.43;5.40;;;;;;;-4.62;74.11;102547.56;4997861;28;20133;-59
2024/01/09 01:03:25;;;;;;;11.60;5.63;;;;;;;-4.61;73.80;102546.78;4996966;28;20635;-61
2024/01/09 01:05:51;;;;;;;9.60;4.60;;;;;;;-4.60;72.87;102524.97;4996140;28;20101;-61
2024/01/09 01:08:16;;;;;;;11.45;5.47;;;;;;;-4.58;71.99;102504.16;4999341;28;20152;-60
2024/01/09 01:10:42;;;;;;;11.02;5.13;;;;;;;-4.60;71.62;102504.78;4996333;28;20517;-59
2024/01/09 01:13:07;;;;;;;9.05;4.95;;;;;;;-4.64;72.15;102515.41;4994106;28;20108;-59
2024/01/09 01:15:33;;;;;;;12.38;5.57;;;;;;;-4.66;73.11;102532.03;4999195;28;20667;-60
2024/01/09 01:17:58;;;;;;;10.27;5.57;;;;;;;-4.66;73.84;102542.13;4994856;28;20103;-61
2024/01/09 01:20:24;;;;;;;10.45;5.82;;;;;;;-4.69;74.99;102562.06;4998947;28;20076;-61
2024/01/09 01:22:49;;;;;;;10.55;5.95;;;;;;;-4.69;76.25;102579.72;5000510;28;20038;-61
2024/01/09 01:25:14;;;;;;;15.43;6.97;;;;;;;-4.79;78.49;102613.44;5000074;28;20289;-61
2024/01/09 01:27:40;;;;;;;13.90;6.32;;;;;;;-4.90;79.84;102626.78;4995530;28;20045;-61
2024/01/09 01:30:06;;;;;;;13.85;8.13;;;;;;;-4.95;81.18;102636.50;4991955;28;20134;-61
2024/01/09 01:32:31;;;;;;;13.88;7.70;;;;;;;-5.03;81.61;102644.19;4998933;28;20058;-61
2024/01/09 01:34:57;;;;;;;15.82;8.00;;;;;;;-5.11;82.15;102642.63;4998061;28;20517;-61
2024/01/09 01:37:22;;;;;;;17.23;8.52;;;;;;;-5.15;82.58;102646.56;4990946;28;20133;-61
2024/01/09 01:39:47;;;;;;;14.38;7.70;;;;;;;-5.20;83.50;102651.97;4993486;28;20045;-61
2024/01/09 01:42:13;;;;;;;13.93;7.30;;;;;;;-5.22;83.55;102653.47;4996663;28;20081;-60
2024/01/09 01:44:38;;;;;;;14.25;7.38;;;;;;;-5.25;83.47;102644.00;4997737;28;20034;-61
2024/01/09 01:47:05;;;;;;;17.42;8.07;;;;;;;-5.24;83.52;102649.94;5002510;28;20115;-60
2024/01/09 01:49:30;;;;;;;18.08;8.07;;;;;;;-5.27;84.15;102654.72;4993958;28;20038;-61
2024/01/09 01:51:56;;;;;;;18.73;8.68;;;;;;;-5.30;84.73;102656.97;4995127;28;20038;-61
2024/01/09 01:54:22;;;;;;;15.90;9.02;;;;;;;-5.35;85.08;102654.06;4997102;28;20072;-61
2024/01/09 01:56:50;;;;;;;15.38;8.75;;;;;;;-5.35;85.74;102660.75;5002804;28;20120;-61
2024/01/09 01:59:17;;;;;;;18.17;8.88;;;;;;;-5.37;86.29;102657.19;4996310;28;20073;-61
2024/01/09 02:01:43;;;;;;;15.43;8.52;;;;;;;-5.45;86.79;102656.56;4998619;28;20804;-61
2024/01/09 02:04:10;;;;;;;13.65;8.10;;;;;;;-5.47;87.10;102658.94;4997134;28;20040;-61
2024/01/09 02:06:37;;;;;;;23.70;9.13;;;;;;;-5.46;87.21;102654.78;4997717;28;20034;-61
2024/01/09 02:09:02;;;;;;;14.00;7.72;;;;;;;-5.49;87.44;102654.53;4996568;28;20560;-61
2024/01/09 02:11:28;;;;;;;15.35;7.97;;;;;;;-5.46;86.73;102642.19;4991643;28;20038;-61
2024/01/09 02:13:54;;;;;;;16.00;7.78;;;;;;;-5.45;86.38;102636.41;4993991;28;20038;-61
2024/01/09 02:16:19;;;;;;;14.77;7.43;;;;;;;-5.46;85.72;102622.03;4996331;28;20812;-61
2024/01/09 02:18:45;;;;;;;16.13;7.30;;;;;;;-5.46;86.36;102632.13;4996678;28;20517;-60
2024/01/09 02:21:10;;;;;;;14.60;7.43;;;;;;;-5.43;86.20;102639.03;4998050;28;20072;-59
2024/01/09 02:23:35;;;;;;;17.27;8.20;;;;;;;-5.44;86.79;102648.25;4998276;28;20062;-59
2024/01/09 02:26:01;;;;;;;16.10;7.20;;;;;;;-5.46;86.88;102649.75;4998237;28;20139;-60
2024/01/09 02:28:30;;;;;;;15.00;7.18;;;;;;;-5.47;87.64;102655.56;4995985;28;20073;-60
2024/01/09 02:30:56;;;;;;;18.42;8.45;;;;;;;-5.48;87.09;102649.63;4991017;28;20501;-59
2024/01/09 02:33:22;;;;;;;20.15;8.38;;;;;;;-5.52;87.40;102649.22;4992058;28;20046;-59
2024/01/09 02:35:47;;;;;;;17.23;8.23;;;;;;;-5.52;87.85;102642.56;4994578;28;20394;-60
2024/01/09 02:38:13;;;;;;;14.50;7.07;;;;;;;-5.54;87.90;102644.06;4993885;28;20682;-61
2024/01/09 02:40:38;;;;;;;13.10;7.93;;;;;;;-5.53;87.79;102637.41;4991143;28;20048;-60
2024/01/09 02:43:04;;;;;;;14.73;7.13;;;;;;;-5.55;87.82;102639.78;4997558;28;20072;-59
2024/01/09 02:45:30;;;;;;;14.15;6.72;;;;;;;-5.56;87.94;102639.66;4994787;28;20153;-60
2024/01/09 02:47:55;;;;;;;17.48;7.43;;;;;;;-5.58;87.84;102628.53;4993214;28;21026;-60
2024/01/09 02:50:20;;;;;;;16.02;7.38;;;;;;;-5.58;87.56;102614.31;4995411;28;20036;-59
2024/01/09 02:52:46;;;;;;;13.15;6.47;;;;;;;-5.63;87.94;102608.03;4995559;28;20535;-60
2024/01/09 02:55:12;;;;;;;13.93;7.30;;;;;;;-5.61;87.66;102618.22;4997087;28;20053;-59
2024/01/09 02:57:40;;;;;;;14.45;6.70;;;;;;;-5.64;88.63;102633.94;4994519;28;20038;-60
2024/01/09 03:00:08;;;;;;;16.70;6.70;;;;;;;-5.65;88.86;102628.78;4992548;28;20041;-61
2024/01/09 03:02:33;;;;;;;13.70;6.30;;;;;;;-5.64;88.21;102630.53;4994302;28;20038;-61
2024/01/09 03:05:00;;;;;;;15.55;7.05;;;;;;;-5.65;88.20;102629.66;4999657;28;20658;-61
2024/01/09 03:07:25;;;;;;;15.40;7.00;;;;;;;-5.67;88.32;102623.59;5000268;28;20262;-61
2024/01/09 03:09:51;;;;;;;13.93;6.13;;;;;;;-5.73;88.26;102622.19;4994758;28;20049;-61
2024/01/09 03:12:16;;;;;;;14.27;6.32;;;;;;;-5.76;89.14;102639.56;4994691;28;20068;-61
2024/01/09 03:14:41;;;;;;;16.50;7.00;;;;;;;-5.78;89.72;102648.63;4997938;28;20076;-61
2024/01/09 03:17:07;;;;;;;14.90;6.32;;;;;;;-5.83;90.29;102645.72;4999182;28;20029;-61
2024/01/09 03:19:33;;;;;;;13.70;6.60;;;;;;;-5.85;90.85;102651.34;4993611;28;20618;-61
2024/01/09 03:21:58;;;;;;;12.88;6.60;;;;;;;-5.87;90.97;102650.34;4996163;28;20046;-61
2024/01/09 03:24:23;;;;;;;16.27;8.63;;;;;;;-5.91;90.57;102635.72;4998572;28;20605;-61
2024/01/09 03:26:49;;;;;;;12.98;6.75;;;;;;;-5.96;90.99;102640.38;4997738;28;20045;-61
2024/01/09 03:29:18;;;;;;;13.20;6.28;;;;;;;-5.99;92.00;102642.63;4993977;28;20045;-61
2024/01/09 03:31:43;;;;;;;12.70;6.90;;;;;;;-6.00;92.41;102645.00;4995750;28;20460;-61
2024/01/09 03:34:08;;;;;;;15.00;6.32;;;;;;;-6.03;92.99;102635.53;4998980;28;20049;-61
2024/01/09 03:36:34;;;;;;;16.70;7.28;;;;;;;-6.08;92.25;102629.22;4997391;28;20056;-64
2024/01/09 03:39:00;;;;;;;15.98;5.80;;;;;;;-6.09;92.54;102624.94;4995176;28;20081;-64
2024/01/09 03:41:25;;;;;;;11.77;5.90;;;;;;;-6.10;93.09;102615.63;4999076;28;20701;-64
2024/01/09 03:43:50;;;;;;;13.43;5.90;;;;;;;-6.12;92.66;102610.44;4996226;28;20085;-64
2024/01/09 03:46:16;;;;;;;15.40;6.25;;;;;;;-6.13;92.90;102600.28;5000208;28;20573;-64
2024/01/09 03:48:41;;;;;;;12.90;6.57;;;;;;;-6.12;92.71;102590.31;4990675;28;20046;-64
2024/01/09 03:51:06;;;;;;;15.38;6.97;;;;;;;-6.09;91.03;102582.16;4998145;28;20120;-64
2024/01/09 03:53:32;;;;;;;13.25;6.75;;;;;;;-6.09;90.95;102578.00;4993072;28;20785;-64
2024/01/09 03:55:57;;;;;;;12.10;5.55;;;;;;;-6.08;91.41;102581.41;4997363;28;20473;-64
2024/01/09 03:58:23;;;;;;;11.68;5.60;;;;;;;-6.07;90.61;102576.53;4998502;28;20049;-63
2024/01/09 04:00:48;;;;;;;14.27;6.95;;;;;;;-6.08;90.85;102574.75;4997692;28;20041;-64
2024/01/09 04:03:14;;;;;;;12.52;6.60;;;;;;;-6.03;90.70;102570.09;4991050;28;20041;-64
2024/01/09 04:05:39;;;;;;;15.70;6.82;;;;;;;-6.06;90.62;102563.16;4993909;28;20770;-64
2024/01/09 04:08:05;;;;;;;13.30;6.28;;;;;;;-6.06;91.05;102575.75;4992430;28;20041;-64
2024/01/09 04:10:31;;;;;;;14.77;6.43;;;;;;;-6.00;90.35;102566.97;4991285;28;20207;-65
2024/01/09 04:12:56;;;;;;;14.57;6.70;;;;;;;-6.01;89.37;102558.53;4996574;28;20037;-64
2024/01/09 04:15:22;;;;;;;10.95;5.97;;;;;;;-6.03;89.50;102555.88;4993446;28;20034;-64
2024/01/09 04:17:47;;;;;;;12.50;5.95;;;;;;;-6.02;89.27;102551.72;4992604;28;20693;-64
2024/01/09 04:20:13;;;;;;;13.75;6.07;;;;;;;-5.93;88.00;102534.91;4996004;28;20053;-64
2024/01/09 04:22:39;;;;;;;10.02;5.65;;;;;;;-5.80;86.43;102507.50;4992896;28;20040;-65
2024/01/09 04:25:05;;;;;;;12.55;5.88;;;;;;;-5.79;85.38;102500.81;4991337;28;20096;-64
2024/01/09 04:27:30;;;;;;;12.60;6.50;;;;;;;-5.80;86.01;102505.00;4994838;28;20104;-64
2024/01/09 04:29:55;;;;;;;11.90;6.15;;;;;;;-5.85;86.40;102518.81;4990949;28;20180;-64
2024/01/09 04:32:21;;;;;;;14.30;5.97;;;;;;;-5.82;85.47;102503.06;4992205;28;20034;-64
2024/01/09 04:34:46;;;;;;;13.40;6.35;;;;;;;-5.84;85.86;102513.03;4999314;28;20042;-64
2024/01/09 04:37:12;;;;;;;11.98;5.93;;;;;;;-5.79;85.12;102498.28;4992462;28;20076;-64
2024/01/09 04:39:37;;;;;;;14.95;6.88;;;;;;;-5.85;85.68;102500.28;4996195;28;20092;-69
2024/01/09 04:42:03;;;;;;;14.35;6.20;;;;;;;-5.86;85.30;102494.41;4999150;28;20038;-68
2024/01/09 04:44:28;;;;;;;10.25;5.63;;;;;;;-5.85;85.23;102495.25;5002994;28;20022;-69
2024/01/09 04:46:53;;;;;;;12.30;6.10;;;;;;;-5.87;85.69;102504.31;4994976;28;20061;-69
2024/01/09 04:49:19;;;;;;;12.68;5.65;;;;;;;-5.90;85.93;102512.50;4994825;28;20738;-68
2024/01/09 04:51:44;;;;;;;14.40;6.18;;;;;;;-5.88;85.95;102507.59;5001556;28;20037;-69
2024/01/09 04:54:09;;;;;;;12.18;6.25;;;;;;;-5.89;86.39;102518.44;4996136;28;20969;-69
2024/01/09 04:56:35;;;;;;;11.40;6.13;;;;;;;-5.87;86.35;102509.34;4997801;28;20080;-69
2024/01/09 04:59:00;;;;;;;14.00;6.47;;;;;;;-5.91;86.53;102522.44;4996430;28;20134;-68
2024/01/09 05:01:26;;;;;;;11.75;5.78;;;;;;;-5.90;86.15;102512.50;4997577;28;20045;-68
2024/01/09 05:03:53;;;;;;;12.10;6.03;;;;;;;-5.92;85.70;102508.09;4992499;28;20034;-68
2024/01/09 05:06:19;;;;;;;12.35;5.75;;;;;;;-5.92;86.48;102519.06;4994971;28;20041;-68
2024/01/09 05:08:45;;;;;;;11.98;6.38;;;;;;;-5.97;86.48;102510.19;4995436;28;20516;-69
2024/01/09 05:11:11;;;;;;;11.70;6.18;;;;;;;-5.96;85.81;102506.94;4995035;28;20030;-69
2024/01/09 05:13:36;;;;;;;16.92;7.03;;;;;;;-5.95;85.80;102496.13;4990525;28;20037;-68
2024/01/09 05:16:02;;;;;;;15.07;6.88;;;;;;;-5.92;86.04;102496.41;4993549;28;20124;-69
2024/01/09 05:18:27;;;;;;;12.48;6.10;;;;;;;-5.92;85.72;102498.91;4992978;28;20034;-68
2024/01/09 05:20:53;;;;;;;13.27;6.22;;;;;;;-5.92;85.99;102510.63;4992944;28;20029;-68
2024/01/09 05:23:18;;;;;;;15.07;6.90;;;;;;;-5.96;86.28;102506.06;4996357;28;20072;-68
2024/01/09 05:25:44;;;;;;;13.07;6.90;;;;;;;-5.94;86.16;102507.94;4999889;28;20734;-68
2024/01/09 05:28:09;;;;;;;16.80;6.85;;;;;;;-5.91;85.07;102490.59;4992926;28;20045;-68
2024/01/09 05:30:35;;;;;;;13.05;6.40;;;;;;;-5.88;85.47;102489.97;4993868;28;20042;-68
2024/01/09 05:33:00;;;;;;;13.13;6.18;;;;;;;-5.92;85.76;102511.50;4994269;28;20038;-68
2024/01/09 05:35:26;;;;;;;10.73;5.43;;;;;;;-5.92;86.46;102515.66;4994123;28;20065;-68
2024/01/09 05:37:51;;;;;;;15.80;5.90;;;;;;;-5.98;87.51;102541.19;4994068;28;20517;-68
2024/01/09 05:40:17;;;;;;;13.30;6.35;;;;;;;-6.04;89.08;102573.38;4999015;28;20030;-68
2024/01/09 05:42:43;;;;;;;16.25;6.55;;;;;;;-6.10;90.47;102600.53;4997518;28;20041;-68
2024/01/09 05:45:10;;;;;;;15.88;6.80;;;;;;;-6.14;91.60;102601.00;4999499;28;20129;-60
2024/01/09 05:47:35;;;;;;;12.35;6.55;;;;;;;-6.17;91.66;102601.63;4996497;28;20140;-60
2024/01/09 05:50:01;;;;;;;13.95;6.78;;;;;;;-6.20;91.96;102591.28;4991097;28;20030;-60
2024/01/09 05:52:27;;;;;;;12.77;6.68;;;;;;;-6.19;91.71;102582.13;4995244;28;20073;-60
2024/01/09 05:54:52;;;;;;;12.57;6.40;;;;;;;-6.21;91.63;102589.50;4992342;28;20789;-60
2024/01/09 05:57:17;;;;;;;15.18;7.88;;;;;;;-6.21;91.77;102578.59;4996197;28;20535;-60
2024/01/09 05:59:43;;;;;;;15.10;7.00;;;;;;;-6.22;92.41;102584.38;4994868;28;20205;-60
2024/01/09 06:02:08;;;;;;;15.73;6.50;;;;;;;-6.25;92.37;102581.59;4995048;28;20097;-68
2024/01/09 06:04:33;;;;;;;12.93;6.82;;;;;;;-6.30;92.75;102597.91;4993828;28;20035;-68
2024/01/09 06:06:59;;;;;;;13.45;6.35;;;;;;;-6.26;93.11;102594.91;5000621;28;20077;-68
2024/01/09 06:09:25;;;;;;;9.50;5.82;;;;;;;-6.25;93.61;102600.09;4997386;28;20124;-68
2024/01/09 06:11:50;;;;;;;15.95;6.70;;;;;;;-6.26;93.58;102602.44;4999771;28;20783;-68
2024/01/09 06:14:15;;;;;;;13.35;6.85;;;;;;;-6.31;94.42;102604.56;4992625;28;20033;-68
2024/01/09 06:16:41;;;;;;;13.55;6.80;;;;;;;-6.36;95.11;102598.22;4996784;28;20472;-68
2024/01/09 06:19:06;;;;;;;11.45;6.03;;;;;;;-6.33;94.88;102593.47;4996166;28;20188;-68
2024/01/09 06:21:31;;;;;;;14.82;6.70;;;;;;;-6.33;95.06;102590.97;4997536;28;20050;-61
2024/01/09 06:23:57;;;;;;;13.55;7.38;;;;;;;-6.34;95.13;102595.88;4998741;28;20062;-61
2024/01/09 06:26:22;;;;;;;14.85;6.70;;;;;;;-6.37;95.29;102593.09;4997574;28;20141;-61
2024/01/09 06:28:48;;;;;;;13.25;6.63;;;;;;;-6.41;96.02;102594.44;4974590;28;20038;-60
2024/01/09 06:31:13;;;;;;;14.50;6.90;;;;;;;-6.41;96.15;102594.44;4992996;28;21765;-59
2024/01/09 06:33:38;;;;;;;13.30;6.15;;;;;;;-6.42;96.55;102587.63;4994107;28;20089;-59
2024/01/09 06:36:04;;;;;;;12.68;6.70;;;;;;;-6.44;96.08;102584.13;4996815;28;20053;-60
2024/01/09 06:38:29;;;;;;;13.27;6.68;;;;;;;-6.45;95.93;102579.84;4992899;28;20033;-59
2024/01/09 06:40:55;;;;;;;17.48;6.70;;;;;;;-6.49;96.16;102575.28;4992567;28;20669;-59
2024/01/09 06:43:20;;;;;;;13.73;6.18;;;;;;;-6.54;96.71;102579.03;4990941;28;20042;-59
2024/01/09 06:45:45;;;;;;;12.73;6.70;;;;;;;-6.59;96.82;102573.59;4994861;28;20044;-65
2024/01/09 06:48:11;;;;;;;14.63;5.78;;;;;;;-6.61;96.44;102576.72;4992719;28;20038;-65
2024/01/09 06:50:36;;;;;;;12.52;6.18;;;;;;;-6.57;96.12;102572.06;4987390;28;20619;-65
2024/01/09 06:53:01;;;;;;;47.42;16.95;;;;;;;-6.57;95.62;102574.59;4994721;28;20034;-65
2024/01/09 06:55:27;;;;;;;28.45;11.73;;;;;;;-6.50;94.50;102567.59;4995031;28;20046;-65
2024/01/09 06:57:52;;;;;;;39.38;14.68;;;;;;;-6.48;93.47;102546.00;4992673;28;20092;-65
2024/01/09 07:00:21;;;;;;;35.10;14.20;;;;;;;-6.47;92.56;102543.59;4992880;28;20096;-64
2024/01/09 07:02:47;;;;;;;27.95;12.98;;;;;;;-6.49;92.37;102544.22;4992684;28;20045;-64
2024/01/09 07:05:13;;;;;;;25.73;11.43;;;;;;;-6.52;92.18;102546.47;4994227;28;20026;-64
2024/01/09 07:07:38;;;;;;;26.13;11.25;;;;;;;-6.51;93.01;102554.16;4992742;28;20033;-64
2024/01/09 07:10:04;;;;;;;21.23;8.65;;;;;;;-6.53;92.46;102549.72;4991176;28;20466;-64
2024/01/09 07:12:29;;;;;;;17.73;8.85;;;;;;;-6.51;91.85;102553.28;4991494;28;20041;-64
2024/01/09 07:14:55;;;;;;;18.80;8.65;;;;;;;-6.52;91.32;102547.34;4991145;28;20034;-64
2024/01/09 07:17:21;;;;;;;14.27;7.60;;;;;;;-6.47;91.21;102542.72;4994086;28;20488;-64
2024/01/09 07:19:47;;;;;;;14.75;8.05;;;;;;;-6.41;90.91;102549.16;4994876;28;20046;-64
2024/01/09 07:22:12;;;;;;;18.70;10.38;;;;;;;-6.47;91.29;102556.19;4994187;28;20049;-64
2024/01/09 07:24:37;;;;;;;18.80;9.73;;;;;;;-6.37;90.46;102542.78;4995957;28;20457;-64
2024/01/09 07:27:03;;;;;;;17.90;8.38;;;;;;;-6.35;90.10;102548.81;4998254;28;20037;-64
2024/01/09 07:29:28;;;;;;;21.40;9.73;;;;;;;-6.38;90.94;102553.56;4992024;28;20042;-64
2024/01/09 07:31:54;;;;;;;21.33;10.18;;;;;;;-6.38;90.68;102558.59;4990560;28;20133;-64
2024/01/09 07:34:19;;;;;;;17.65;7.68;;;;;;;-6.37;89.85;102542.78;4993622;28;20129;-64
2024/01/09 07:36:45;;;;;;;17.23;9.38;;;;;;;-6.31;90.06;102548.34;4991389;28;20072;-64
2024/01/09 07:39:11;;;;;;;20.75;10.15;;;;;;;-6.28;89.43;102536.03;4989919;28;20545;-64
2024/01/09 07:41:37;;;;;;;16.75;8.07;;;;;;;-6.27;89.52;102545.34;4992335;28;20054;-63
2024/01/09 07:44:03;;;;;;;19.95;8.18;;;;;;;-6.25;89.39;102541.31;4994162;28;20122;-65
2024/01/09 07:46:30;;;;;;;17.45;8.07;;;;;;;-6.27;88.79;102531.13;4994777;28;20042;-64
2024/01/09 07:48:55;;;;;;;17.92;8.63;;;;;;;-6.24;88.14;102518.78;4997614;28;20572;-64
2024/01/09 07:51:21;;;;;;;14.32;7.88;;;;;;;-6.15;88.36;102533.81;4998876;28;20073;-64
2024/01/09 07:53:46;;;;;;;16.63;7.72;;;;;;;-6.11;88.71;102536.72;4995636;28;20026;-64
2024/01/09 07:56:17;;;;;;;15.05;7.97;;;;;;;-6.12;88.47;102531.53;4994403;28;20033;-64
2024/01/09 07:58:43;;;;;;;18.67;7.68;;;;;;;-6.12;88.70;102537.47;4993614;28;20058;-65
2024/01/09 08:01:09;;;;;;;17.58;8.15;;;;;;;-6.11;88.97;102548.41;4992342;28;20034;-59
2024/01/09 08:03:34;;;;;;;24.80;10.98;;;;;;;-6.10;89.52;102558.63;4987858;28;20068;-59
2024/01/09 08:06:00;;;;;;;18.38;8.88;;;;;;;-6.09;89.67;102562.00;4998079;28;20038;-59
2024/01/09 08:08:25;;;;;;;14.13;7.07;;;;;;;-6.09;89.15;102559.50;4998713;28;20030;-59
2024/01/09 08:10:51;;;;;;;19.55;8.02;;;;;;;-6.07;89.64;102566.47;4991387;28;20488;-59
2024/01/09 08:13:16;;;;;;;17.70;8.35;;;;;;;-6.03;89.97;102570.09;4998974;28;20156;-59
2024/01/09 08:15:42;;;;;;;17.67;8.02;;;;;;;-5.96;89.63;102561.44;5002549;28;20571;-60
2024/01/09 08:18:07;;;;;;;14.40;6.43;;;;;;;-5.93;89.08;102552.53;4995371;28;20122;-59
2024/01/09 08:20:32;;;;;;;16.50;7.85;;;;;;;-5.91;88.66;102550.13;5000805;28;20092;-59
2024/01/09 08:22:58;;;;;;;15.52;8.07;;;;;;;-5.86;88.78;102549.78;4995862;28;20033;-59
2024/01/09 08:25:23;;;;;;;16.13;8.27;;;;;;;-5.82;88.43;102549.28;5003486;28;20052;-65
2024/01/09 08:27:49;;;;;;;15.20;7.03;;;;;;;-5.79;88.25;102547.00;5002096;28;20042;-65
2024/01/09 08:30:15;;;;;;;18.23;8.07;;;;;;;-5.75;88.09;102544.00;4993195;28;20438;-64
2024/01/09 08:32:40;;;;;;;16.05;8.02;;;;;;;-5.65;87.96;102549.06;4998381;28;20496;-63
2024/01/09 08:35:06;;;;;;;21.13;8.60;;;;;;;-5.61;88.26;102547.69;4986725;28;20033;-64
2024/01/09 08:37:32;;;;;;;17.85;8.82;;;;;;;-5.53;88.66;102561.84;4991403;28;20915;-64
2024/01/09 08:39:57;;;;;;;20.27;8.43;;;;;;;-5.48;88.88;102566.50;4998964;28;20038;-64
2024/01/09 08:42:22;;;;;;;17.35;7.90;;;;;;;-5.44;89.58;102569.28;4993869;28;20092;-65
2024/01/09 08:44:48;;;;;;;16.33;8.02;;;;;;;-5.41;89.05;102562.81;4997435;28;20227;-64
2024/01/09 08:47:13;;;;;;;19.02;7.45;;;;;;;-5.37;89.18;102567.38;4996562;28;20022;-65
2024/01/09 08:49:39;;;;;;;16.05;7.90;;;;;;;-5.32;89.60;102572.81;4984813;28;20049;-65
2024/01/09 08:52:05;;;;;;;15.70;9.02;;;;;;;-5.25;89.17;102575.06;4994206;28;20042;-59
2024/01/09 08:54:30;;;;;;;15.77;8.13;;;;;;;-5.19;88.61;102568.03;4995356;28;20042;-59
2024/01/09 08:56:56;;;;;;;19.10;8.52;;;;;;;-5.07;87.73;102549.75;5001167;28;20034;-60
2024/01/09 08:59:21;;;;;;;15.07;7.72;;;;;;;-5.01;87.67;102547.75;4995744;28;20037;-60
2024/01/09 09:01:50;;;;;;;16.05;8.27;;;;;;;-4.91;87.59;102549.38;4995946;28;20030;-60
2024/01/09 09:04:15;;;;;;;16.67;7.78;;;;;;;-4.87;87.61;102546.34;4993453;28;20132;-64
2024/01/09 09:06:40;;;;;;;18.83;8.02;;;;;;;-4.84;87.72;102554.16;4993276;28;20353;-64
2024/01/09 09:09:06;;;;;;;17.13;7.65;;;;;;;-4.74;86.77;102536.50;4991989;28;20038;-64
2024/01/09 09:11:32;;;;;;;17.15;7.30;;;;;;;-4.70;86.25;102533.47;4995231;28;20042;-64
2024/01/09 09:13:58;;;;;;;14.05;7.47;;;;;;;-4.63;86.58;102524.72;5000314;28;20042;-64
2024/01/09 09:16:28;;;;;;;13.82;6.80;;;;;;;-4.57;85.27;102508.44;5000469;28;20067;-64
2024/01/09 09:18:53;;;;;;;11.07;6.55;;;;;;;-4.52;85.60;102514.69;5001463;28;20034;-65
2024/01/09 09:21:19;;;;;;;19.08;7.07;;;;;;;-4.44;85.11;102516.22;4990904;28;20088;-65
2024/01/09 09:23:45;;;;;;;12.40;7.30;;;;;;;-4.40;85.23;102520.72;4992967;28;20030;-64
2024/01/09 09:26:12;;;;;;;16.88;8.77;;;;;;;-4.35;85.55;102532.06;5000738;28;20038;-65
2024/01/09 09:28:37;;;;;;;12.50;6.90;;;;;;;-4.29;85.28;102521.56;4991209;28;20049;-64
2024/01/09 09:31:03;;;;;;;13.30;7.05;;;;;;;-4.23;85.26;102523.69;4993706;28;20034;-64
2024/01/09 09:33:30;;;;;;;14.40;6.85;;;;;;;-4.18;85.35;102524.94;4993049;28;20038;-59
2024/01/09 09:35:55;;;;;;;12.30;6.88;;;;;;;-4.09;84.86;102524.00;4994748;28;20425;-64
2024/01/09 09:38:22;;;;;;;17.83;8.23;;;;;;;-4.02;85.58;102532.94;4993197;28;20041;-64
2024/01/09 09:40:48;;;;;;;15.48;7.20;;;;;;;-3.94;86.23;102537.81;4994952;28;20116;-59
2024/01/09 09:43:24;;;;;;;14.80;7.28;;;;;;;-3.88;85.60;102527.31;5001019;28;20386;-60
2024/01/09 09:45:54;;;;;;;12.73;7.45;;;;;;;-3.84;85.01;102517.56;4999735;28;20072;-60
2024/01/09 09:48:23;;;;;;;15.10;7.75;;;;;;;-3.78;85.69;102524.75;4988084;28;20698;-60
2024/01/09 09:50:52;;;;;;;12.07;7.47;;;;;;;-3.71;85.05;102516.84;4993949;28;20433;-59
2024/01/09 09:53:18;;;;;;;12.93;7.10;;;;;;;-3.67;83.45;102475.03;4995757;28;20026;-60
2024/01/09 09:55:45;;;;;;;14.93;6.50;;;;;;;-3.59;83.63;102489.09;5001805;28;20057;-59
2024/01/09 09:58:11;;;;;;;11.82;6.45;;;;;;;-3.50;82.63;102469.56;4996845;28;20049;-60
2024/01/09 10:00:36;;;;;;;13.15;6.35;;;;;;;-3.46;81.52;102451.34;4989471;28;20532;-65
2024/01/09 10:03:07;;;;;;;13.00;7.13;;;;;;;-3.40;81.62;102445.13;4993046;28;20456;-64
2024/01/09 10:05:38;;;;;;;14.02;7.18;;;;;;;-3.34;80.36;102420.28;4990309;28;20033;-60
2024/01/09 10:08:07;;;;;;;12.98;6.40;;;;;;;-3.24;78.67;102384.78;4992705;28;20050;-59
2024/01/09 10:10:33;;;;;;;11.82;5.53;;;;;;;-3.22;78.05;102373.16;4987885;28;20045;-59
2024/01/09 10:12:59;;;;;;;12.70;6.93;;;;;;;-3.12;77.80;102382.25;4993723;28;20808;-59
2024/01/09 10:15:24;;;;;;;14.07;7.00;;;;;;;-3.05;77.32;102368.41;4997880;28;20156;-59
2024/01/09 10:17:52;;;;;;;16.10;6.93;;;;;;;-2.99;77.04;102369.72;4990232;28;20144;-59
2024/01/09 10:20:17;;;;;;;13.57;7.68;;;;;;;-2.94;76.34;102347.28;4994034;28;20205;-59
2024/01/09 10:22:43;;;;;;;11.68;6.53;;;;;;;-2.87;76.26;102336.81;4993476;28;20498;-59
2024/01/09 10:25:10;;;;;;;12.35;6.10;;;;;;;-2.80;74.66;102318.78;4991041;28;20046;-59
2024/01/09 10:27:37;;;;;;;11.88;6.70;;;;;;;-2.73;73.98;102300.69;5002878;28;20041;-65
2024/01/09 10:30:09;;;;;;;11.25;6.22;;;;;;;-2.69;73.79;102284.97;4991324;28;20037;-64
2024/01/09 10:32:36;;;;;;;12.20;6.57;;;;;;;-2.63;72.73;102276.16;4989773;28;20026;-64
2024/01/09 10:35:03;;;;;;;11.43;6.18;;;;;;;-2.61;71.04;102225.63;4989076;28;20068;-64
2024/01/09 10:37:33;;;;;;;10.77;6.10;;;;;;;-2.54;69.68;102211.72;4994995;28;20046;-64
2024/01/09 10:39:59;;;;;;;12.10;5.25;;;;;;;-2.47;68.55;102208.84;4997584;28;20121;-64
2024/01/09 10:42:26;;;;;;;8.02;5.13;;;;;;;-2.39;68.05;102202.63;4997618;28;20052;-64
2024/01/09 10:44:51;;;;;;;17.17;5.97;;;;;;;-2.31;66.44;102181.22;5002965;28;20057;-64
2024/01/09 10:47:18;;;;;;;13.02;5.03;;;;;;;-2.27;64.82;102155.31;4994739;28;20141;-64
2024/01/09 10:49:44;;;;;;;8.63;4.80;;;;;;;-2.23;60.51;102066.97;4992480;28;20046;-64
2024/01/09 10:52:13;;;;;;;9.52;5.22;;;;;;;-2.20;60.26;102082.34;4992054;28;20050;-64
2024/01/09 10:54:40;;;;;;;8.27;4.30;;;;;;;-2.09;58.49;102071.28;4989343;28;20042;-64
2024/01/09 10:57:06;;;;;;;8.70;4.32;;;;;;;-2.02;56.81;102044.63;5003126;28;20169;-64
2024/01/09 10:59:34;;;;;;;8.43;4.28;;;;;;;-2.00;55.64;102038.03;4993805;28;20524;-64
2024/01/09 11:02:00;;;;;;;10.35;4.20;;;;;;;-1.94;55.05;102042.59;4987888;28;20042;-60
2024/01/09 11:04:25;;;;;;;9.07;3.88;;;;;;;-1.91;55.46;102060.53;4993007;28;20046;-59
2024/01/09 11:06:52;;;;;;;9.07;5.18;;;;;;;-1.88;56.40;102081.00;4995711;28;20049;-60
2024/01/09 11:09:19;;;;;;;11.20;4.63;;;;;;;-1.84;59.45;102149.69;4994193;28;20495;-60